Time;durP1;ratioP1;P1;durP2;ratioP2;P2;SDS_P1;SDS_P2;PMS_P1;PMS_P2;Temp;Humidity;BMP_temperature;BMP_pressure;BME280_temperature;BME280_humidity;BME280_pressure;Samples;Min_cycle;Max_cycle;Signal;HPM_P1;HPM_P2
2024/03/06 00:01:50;;;;;;;13.63;9.95;;;24.20;48.20;;;;;;6150239;28;82157;-53
2024/03/06 00:04:51;;;;;;;13.77;10.00;;;24.10;48.10;;;;;;6151451;28;80850;-57
2024/03/06 00:07:52;;;;;;;14.40;9.93;;;24.10;48.10;;;;;;6148559;28;83626;-57
2024/03/06 00:10:52;;;;;;;11.55;8.57;;;24.20;48.20;;;;;;6150628;28;83032;-57
2024/03/06 00:13:53;;;;;;;14.93;10.23;;;24.10;48.30;;;;;;6142322;28;85037;-57
2024/03/06 00:16:55;;;;;;;15.73;9.82;;;24.10;48.20;;;;;;6140311;28;83237;-52
2024/03/06 00:19:56;;;;;;;12.50;9.40;;;24.10;48.20;;;;;;6146688;28;83096;-53
2024/03/06 00:22:56;;;;;;;13.07;9.95;;;24.10;48.20;;;;;;6149931;28;81052;-52
2024/03/06 00:25:57;;;;;;;13.90;9.27;;;24.10;48.30;;;;;;6146541;28;80438;-55
2024/03/06 00:28:57;;;;;;;14.45;9.82;;;24.10;47.80;;;;;;6153839;28;80604;-53
2024/03/06 00:31:58;;;;;;;13.23;9.25;;;24.10;47.90;;;;;;6146668;28;80608;-58
2024/03/06 00:34:59;;;;;;;14.10;10.45;;;24.00;47.80;;;;;;6153676;28;80999;-55
2024/03/06 00:38:02;;;;;;;15.52;10.85;;;24.10;47.60;;;;;;6149746;28;84437;-53
2024/03/06 00:41:03;;;;;;;14.70;10.13;;;24.00;47.60;;;;;;6149086;28;83558;-50
2024/03/06 00:44:04;;;;;;;14.70;10.63;;;24.00;47.60;;;;;;6149537;28;83367;-52
2024/03/06 00:47:04;;;;;;;14.63;10.30;;;24.10;47.30;;;;;;6150001;28;85050;-55
2024/03/06 00:50:07;;;;;;;15.70;10.18;;;24.00;47.40;;;;;;6148092;28;83437;-55
2024/03/06 00:53:08;;;;;;;12.93;9.95;;;24.00;47.30;;;;;;6147813;28;82887;-54
2024/03/06 00:56:08;;;;;;;18.05;11.30;;;24.00;47.40;;;;;;6151265;28;82756;-52
2024/03/06 00:59:09;;;;;;;15.77;10.55;;;24.10;47.40;;;;;;6149788;28;84313;-51
2024/03/06 01:02:10;;;;;;;15.45;10.30;;;24.10;47.20;;;;;;6148609;28;83027;-55
2024/03/06 01:05:10;;;;;;;16.83;10.98;;;24.00;47.00;;;;;;6150197;28;82997;-57
2024/03/06 01:08:11;;;;;;;13.25;9.98;;;24.00;47.20;;;;;;6133000;28;84304;-57
2024/03/06 01:11:14;;;;;;;17.73;11.43;;;24.00;47.30;;;;;;6133190;28;83697;-52
2024/03/06 01:14:14;;;;;;;16.30;11.50;;;24.00;47.20;;;;;;6149690;28;82754;-51
2024/03/06 01:17:15;;;;;;;22.23;11.55;;;24.00;46.80;;;;;;6145867;28;83514;-55
2024/03/06 01:20:15;;;;;;;15.50;10.80;;;23.90;46.60;;;;;;6139304;28;82799;-52
2024/03/06 01:23:16;;;;;;;14.93;10.63;;;24.00;47.70;;;;;;6127862;28;83202;-55
2024/03/06 01:26:17;;;;;;;17.10;10.23;;;24.00;46.90;;;;;;6127361;28;83278;-55
2024/03/06 01:29:18;;;;;;;14.77;10.02;;;24.00;47.00;;;;;;6132357;28;84724;-51
2024/03/06 01:32:18;;;;;;;14.60;10.68;;;24.00;46.80;;;;;;6141410;28;84064;-56
2024/03/06 01:35:19;;;;;;;12.95;9.98;;;24.00;47.00;;;;;;6139819;28;83135;-53
2024/03/06 01:38:19;;;;;;;16.65;11.10;;;24.00;46.70;;;;;;6126538;28;84807;-49
2024/03/06 01:41:20;;;;;;;14.63;10.27;;;24.00;46.80;;;;;;6126481;28;83678;-55
2024/03/06 01:44:20;;;;;;;14.32;9.50;;;23.90;46.90;;;;;;6132194;28;84583;-53
2024/03/06 01:47:21;;;;;;;13.40;10.02;;;23.90;46.80;;;;;;6130107;28;83115;-55
2024/03/06 01:50:22;;;;;;;16.10;10.35;;;24.00;46.70;;;;;;6146519;28;84329;-51
2024/03/06 01:53:22;;;;;;;13.05;9.48;;;23.90;46.80;;;;;;6128251;28;84605;-55
2024/03/06 01:56:25;;;;;;;12.23;9.20;;;23.90;46.70;;;;;;6129650;28;81758;-55
2024/03/06 01:59:25;;;;;;;12.85;9.35;;;23.90;46.80;;;;;;6142077;28;81177;-54
2024/03/06 02:02:26;;;;;;;14.10;9.80;;;23.90;46.70;;;;;;6144420;28;80272;-54
2024/03/06 02:05:26;;;;;;;14.68;9.73;;;23.90;46.80;;;;;;6153158;28;83233;-52
2024/03/06 02:08:27;;;;;;;11.85;8.55;;;23.90;46.70;;;;;;6139894;28;80804;-53
2024/03/06 02:11:28;;;;;;;13.02;9.23;;;23.90;46.60;;;;;;6129115;28;81836;-54
2024/03/06 02:14:28;;;;;;;13.32;8.52;;;23.90;46.70;;;;;;6129183;28;80597;-56
2024/03/06 02:17:29;;;;;;;13.98;9.07;;;23.90;46.70;;;;;;6144850;28;80771;-55
2024/03/06 02:20:30;;;;;;;13.73;9.27;;;23.90;46.60;;;;;;6133090;28;80852;-53
2024/03/06 02:23:30;;;;;;;13.85;9.73;;;23.90;46.60;;;;;;6149273;28;81004;-56
2024/03/06 02:26:31;;;;;;;18.10;8.55;;;24.00;46.60;;;;;;6140130;28;83681;-55
2024/03/06 02:29:32;;;;;;;16.27;9.85;;;23.90;46.40;;;;;;6127457;28;82295;-60
2024/03/06 02:32:32;;;;;;;16.83;9.80;;;24.00;46.40;;;;;;6136389;28;82213;-55
2024/03/06 02:35:33;;;;;;;14.07;9.52;;;23.90;46.20;;;;;;6127474;28;82455;-55
2024/03/06 02:38:35;;;;;;;12.50;10.02;;;23.80;46.20;;;;;;6128187;28;80479;-55
2024/03/06 02:41:36;;;;;;;15.63;10.45;;;23.90;46.20;;;;;;6148521;28;83651;-55
2024/03/06 02:44:36;;;;;;;14.77;9.68;;;23.80;46.20;;;;;;6139473;28;83774;-53
2024/03/06 02:47:37;;;;;;;14.55;9.40;;;23.90;46.30;;;;;;6139715;28;82794;-53
2024/03/06 02:50:37;;;;;;;14.15;9.85;;;23.90;46.20;;;;;;6127120;28;80489;-51
2024/03/06 02:53:38;;;;;;;12.68;9.23;;;23.90;46.10;;;;;;6126449;28;81031;-52
2024/03/06 02:56:38;;;;;;;15.23;9.73;;;23.90;46.10;;;;;;6128027;28;80906;-52
2024/03/06 02:59:39;;;;;;;16.13;9.70;;;23.80;46.00;;;;;;6128548;28;80548;-53
2024/03/06 03:02:40;;;;;;;19.23;10.20;;;23.80;46.00;;;;;;6141588;28;80940;-53
2024/03/06 03:05:40;;;;;;;13.32;9.45;;;23.80;46.00;;;;;;6148152;28;86142;-54
2024/03/06 03:08:41;;;;;;;15.52;10.20;;;23.80;46.00;;;;;;6150247;28;83065;-53
2024/03/06 03:11:41;;;;;;;12.80;9.70;;;23.80;45.90;;;;;;6141115;28;84064;-52
2024/03/06 03:14:42;;;;;;;11.82;8.98;;;23.80;46.00;;;;;;6126698;28;81978;-51
2024/03/06 03:17:43;;;;;;;11.13;7.93;;;23.80;46.00;;;;;;6130054;28;80419;-54
2024/03/06 03:20:44;;;;;;;12.23;9.18;;;23.80;46.00;;;;;;6138673;28;80949;-52
2024/03/06 03:23:44;;;;;;;14.00;9.02;;;23.80;46.10;;;;;;6137840;28;80840;-53
2024/03/06 03:26:45;;;;;;;13.25;9.55;;;23.80;46.10;;;;;;6126988;28;80797;-54
2024/03/06 03:29:45;;;;;;;12.73;9.57;;;23.80;45.80;;;;;;6140481;28;81039;-53
2024/03/06 03:32:46;;;;;;;13.02;9.38;;;23.80;45.90;;;;;;6145472;28;80724;-55
2024/03/06 03:35:46;;;;;;;14.45;10.38;;;23.80;45.80;;;;;;6143737;28;80301;-54
2024/03/06 03:38:47;;;;;;;13.25;9.20;;;23.70;44.90;;;;;;6141027;28;83330;-55
2024/03/06 03:41:47;;;;;;;14.43;9.85;;;23.80;45.70;;;;;;6150232;28;82967;-53
2024/03/06 03:44:48;;;;;;;14.50;9.55;;;23.80;45.60;;;;;;6151226;28;80611;-54
2024/03/06 03:47:48;;;;;;;14.70;10.15;;;23.80;45.50;;;;;;6139428;28;80780;-54
2024/03/06 03:50:49;;;;;;;11.55;9.05;;;23.80;45.60;;;;;;6135148;28;83278;-53
2024/03/06 03:53:52;;;;;;;15.50;9.93;;;23.80;45.50;;;;;;6129166;28;82967;-54
2024/03/06 03:56:53;;;;;;;14.07;10.13;;;23.80;45.60;;;;;;6127138;28;80476;-53
2024/03/06 03:59:54;;;;;;;13.70;9.65;;;23.80;45.50;;;;;;6123759;28;83106;-54
2024/03/06 04:02:54;;;;;;;11.70;8.45;;;23.80;45.50;;;;;;6140486;28;82859;-60
2024/03/06 04:05:55;;;;;;;13.43;9.77;;;23.80;45.90;;;;;;6153705;28;81203;-58
2024/03/06 04:08:55;;;;;;;14.27;9.57;;;23.80;45.90;;;;;;6153630;28;80237;-57
2024/03/06 04:11:56;;;;;;;11.88;8.88;;;23.80;45.70;;;;;;6138678;28;80589;-57
2024/03/06 04:14:56;;;;;;;13.95;9.50;;;23.80;45.60;;;;;;6147023;28;80547;-56
2024/03/06 04:17:57;;;;;;;12.20;9.38;;;23.80;46.20;;;;;;6131082;28;80944;-55
2024/03/06 04:20:58;;;;;;;11.55;8.90;;;23.80;45.50;;;;;;6139094;28;81139;-56
2024/03/06 04:23:58;;;;;;;12.05;8.95;;;23.80;45.40;;;;;;6143795;28;81356;-54
2024/03/06 04:26:59;;;;;;;13.18;8.55;;;23.80;45.80;;;;;;6130964;28;80966;-55
2024/03/06 04:29:59;;;;;;;10.75;7.88;;;23.90;45.70;;;;;;6152048;28;80583;-57
2024/03/06 04:33:00;;;;;;;13.93;9.63;;;23.90;45.50;;;;;;6144205;28;80789;-56
2024/03/06 04:36:02;;;;;;;12.90;9.45;;;23.90;45.30;;;;;;6130357;28;81427;-55
2024/03/06 04:39:07;;;;;;;11.13;8.30;;;23.90;44.80;;;;;;6142883;28;81145;-53
2024/03/06 04:42:07;;;;;;;11.80;8.82;;;24.00;44.80;;;;;;6130469;28;80724;-56
2024/03/06 04:45:08;;;;;;;12.65;8.23;;;24.00;44.40;;;;;;6131119;28;80379;-55
2024/03/06 04:48:09;;;;;;;10.70;8.38;;;24.00;44.30;;;;;;6130651;28;80282;-59
2024/03/06 04:51:09;;;;;;;10.75;8.05;;;24.00;44.30;;;;;;6130853;28;80869;-55
2024/03/06 04:54:10;;;;;;;9.07;7.32;;;24.10;44.10;;;;;;6131137;28;80316;-54
2024/03/06 04:57:11;;;;;;;10.15;7.80;;;24.10;44.20;;;;;;6131184;28;81836;-54
2024/03/06 05:00:11;;;;;;;11.52;8.32;;;24.10;44.00;;;;;;6129239;28;81023;-58
2024/03/06 05:03:11;;;;;;;11.25;8.73;;;24.10;44.50;;;;;;6145200;28;82821;-59
2024/03/06 05:06:12;;;;;;;12.48;8.55;;;24.10;44.20;;;;;;6142253;28;84596;-55
2024/03/06 05:09:14;;;;;;;12.00;8.48;;;24.10;44.10;;;;;;6146147;28;83182;-55
2024/03/06 05:12:15;;;;;;;10.90;7.90;;;24.20;44.00;;;;;;6140883;28;82416;-57
2024/03/06 05:15:15;;;;;;;9.95;7.40;;;24.20;43.90;;;;;;6137622;28;84616;-58
2024/03/06 05:18:16;;;;;;;10.98;8.23;;;24.20;44.20;;;;;;6139556;28;81163;-56
2024/03/06 05:21:17;;;;;;;10.68;7.43;;;24.20;44.40;;;;;;6130057;28;83642;-56
2024/03/06 05:24:17;;;;;;;11.68;7.68;;;24.20;44.30;;;;;;6135540;28;80653;-58
2024/03/06 05:27:18;;;;;;;10.82;7.65;;;24.20;44.20;;;;;;6138816;28;80617;-57
2024/03/06 05:30:18;;;;;;;11.27;8.15;;;24.20;44.30;;;;;;6132797;28;83577;-60
2024/03/06 05:33:19;;;;;;;9.82;7.82;;;24.20;44.30;;;;;;6145449;28;80700;-59
2024/03/06 05:36:19;;;;;;;11.00;7.90;;;24.20;44.40;;;;;;6138447;28;82856;-57
2024/03/06 05:39:20;;;;;;;13.00;7.40;;;24.20;45.20;;;;;;6134365;28;80563;-60
2024/03/06 05:42:20;;;;;;;14.35;7.78;;;24.30;45.10;;;;;;6136695;28;82263;-58
2024/03/06 05:45:21;;;;;;;12.93;8.40;;;24.30;45.20;;;;;;6141805;28;81294;-59
2024/03/06 05:48:21;;;;;;;15.45;7.82;;;24.30;45.70;;;;;;6151417;28;80608;-59
2024/03/06 05:51:22;;;;;;;13.40;7.75;;;24.30;45.60;;;;;;6149423;28;82291;-59
2024/03/06 05:54:23;;;;;;;13.23;8.00;;;24.30;45.80;;;;;;6129831;28;87778;-59
2024/03/06 05:57:23;;;;;;;14.57;8.07;;;24.20;45.70;;;;;;6140252;28;80406;-59
2024/03/06 06:00:24;;;;;;;11.25;7.63;;;24.20;45.70;;;;;;6144929;28;80625;-59
2024/03/06 06:03:24;;;;;;;12.38;8.07;;;24.20;45.50;;;;;;6139138;28;81179;-59
2024/03/06 06:06:25;;;;;;;11.07;8.35;;;24.10;45.50;;;;;;6152797;28;80635;-59
2024/03/06 06:09:25;;;;;;;12.98;7.75;;;24.10;45.40;;;;;;6147357;28;80568;-58
2024/03/06 06:12:26;;;;;;;15.25;8.00;;;24.10;45.30;;;;;;6146469;28;81369;-59
2024/03/06 06:15:26;;;;;;;12.18;9.00;;;24.10;44.90;;;;;;6150182;28;80913;-59
2024/03/06 06:18:27;;;;;;;16.67;8.68;;;24.10;44.70;;;;;;6150659;28;80411;-59
2024/03/06 06:21:27;;;;;;;15.65;8.25;;;24.00;44.40;;;;;;6150060;28;81031;-59
2024/03/06 06:24:28;;;;;;;13.05;8.93;;;24.00;44.30;;;;;;6152334;28;84967;-60
2024/03/06 06:27:28;;;;;;;13.73;8.60;;;24.00;44.40;;;;;;6141086;28;80807;-61
2024/03/06 06:30:29;;;;;;;12.30;7.97;;;24.00;44.90;;;;;;6150298;28;81033;-59
2024/03/06 06:33:29;;;;;;;13.50;8.40;;;24.00;45.00;;;;;;6141634;28;80683;-60
2024/03/06 06:36:30;;;;;;;14.48;9.00;;;24.00;45.00;;;;;;6138876;28;80977;-59
2024/03/06 06:39:33;;;;;;;11.85;8.23;;;24.00;45.10;;;;;;6146391;28;80802;-59
2024/03/06 06:42:33;;;;;;;13.20;8.90;;;24.00;44.80;;;;;;6148988;28;82517;-59
2024/03/06 06:45:34;;;;;;;13.27;9.23;;;24.00;44.80;;;;;;6151297;28;80466;-59
2024/03/06 06:48:34;;;;;;;12.35;9.15;;;23.90;44.60;;;;;;6144304;28;80955;-59
2024/03/06 06:51:35;;;;;;;11.93;8.82;;;23.90;44.60;;;;;;6149055;28;80816;-59
2024/03/06 06:54:35;;;;;;;14.02;8.77;;;23.90;44.40;;;;;;6135930;28;81706;-59
2024/03/06 06:57:36;;;;;;;16.95;8.95;;;23.90;44.50;;;;;;6131683;28;81221;-58
2024/03/06 07:00:37;;;;;;;13.13;8.73;;;23.90;44.40;;;;;;6138582;28;81996;-59
2024/03/06 07:03:38;;;;;;;14.55;8.98;;;23.80;44.50;;;;;;6145496;28;81981;-59
2024/03/06 07:06:38;;;;;;;11.25;8.48;;;23.90;44.20;;;;;;6144129;28;81952;-59
2024/03/06 07:09:39;;;;;;;14.43;9.05;;;23.80;44.30;;;;;;6139038;28;80711;-59
2024/03/06 07:12:39;;;;;;;12.32;9.25;;;23.90;44.20;;;;;;6144775;28;80455;-58
2024/03/06 07:15:40;;;;;;;12.05;8.32;;;23.80;44.10;;;;;;6142803;28;80768;-60
2024/03/06 07:18:40;;;;;;;14.27;9.35;;;23.80;44.00;;;;;;6146227;28;80877;-58
2024/03/06 07:21:41;;;;;;;12.65;9.52;;;23.80;44.00;;;;;;6138830;28;82359;-58
2024/03/06 07:24:41;;;;;;;10.25;8.27;;;23.80;44.00;;;;;;6146339;28;80793;-58
2024/03/06 07:27:42;;;;;;;12.57;8.43;;;23.80;44.20;;;;;;6132528;28;80407;-58
2024/03/06 07:30:42;;;;;;;11.05;8.27;;;23.80;44.10;;;;;;6142683;28;82298;-58
2024/03/06 07:33:43;;;;;;;13.63;8.40;;;23.80;43.90;;;;;;6149707;28;80342;-58
2024/03/06 07:36:46;;;;;;;12.25;8.52;;;23.80;43.90;;;;;;6137892;28;80883;-59
2024/03/06 07:39:46;;;;;;;12.65;8.15;;;23.70;43.90;;;;;;6151727;28;80772;-58
2024/03/06 07:42:47;;;;;;;12.35;8.50;;;23.80;44.00;;;;;;6153982;28;80701;-58
2024/03/06 07:45:48;;;;;;;10.85;8.43;;;23.70;43.90;;;;;;6154192;28;80499;-58
2024/03/06 07:48:51;;;;;;;12.18;8.98;;;23.80;43.90;;;;;;6155401;28;80478;-58
2024/03/06 07:51:51;;;;;;;12.40;8.65;;;23.80;43.90;;;;;;6152956;28;80738;-57
2024/03/06 07:54:52;;;;;;;12.50;8.38;;;23.80;43.90;;;;;;6147262;28;80292;-58
2024/03/06 07:57:53;;;;;;;14.55;9.77;;;23.80;43.90;;;;;;6146690;28;86456;-59
2024/03/06 08:00:55;;;;;;;11.93;8.95;;;23.80;43.90;;;;;;6154332;28;80499;-59
2024/03/06 08:03:56;;;;;;;11.48;8.77;;;23.70;43.80;;;;;;6152365;28;80861;-58
2024/03/06 08:06:56;;;;;;;13.98;9.68;;;23.70;43.90;;;;;;6152503;28;81199;-59
2024/03/06 08:09:57;;;;;;;13.73;9.70;;;23.80;43.90;;;;;;6153423;28;81036;-59
2024/03/06 08:12:57;;;;;;;16.40;9.23;;;23.70;43.90;;;;;;6154142;28;80577;-58
2024/03/06 08:15:58;;;;;;;15.40;10.20;;;23.70;44.10;;;;;;6151308;28;83329;-59
2024/03/06 08:18:59;;;;;;;15.50;9.82;;;23.70;44.10;;;;;;6149579;28;83148;-59
2024/03/06 08:22:01;;;;;;;18.85;10.02;;;23.70;44.40;;;;;;6141485;28;83424;-59
2024/03/06 08:25:01;;;;;;;17.30;9.90;;;23.70;44.40;;;;;;6136326;28;84248;-61
2024/03/06 08:28:05;;;;;;;14.60;9.70;;;23.70;44.80;;;;;;6142350;28;83177;-60
2024/03/06 08:31:05;;;;;;;20.30;13.18;;;23.70;44.80;;;;;;6143071;28;81136;-61
2024/03/06 08:34:06;;;;;;;28.15;15.95;;;23.70;43.40;;;;;;6139443;28;83086;-60
2024/03/06 08:37:07;;;;;;;20.90;13.23;;;23.40;41.70;;;;;;6141896;28;83168;-60
2024/03/06 08:40:10;;;;;;;19.48;11.80;;;23.30;43.50;;;;;;6136676;28;83482;-60
2024/03/06 08:43:10;;;;;;;16.65;10.35;;;23.30;44.60;;;;;;6132569;28;83693;-60
2024/03/06 08:46:12;;;;;;;14.23;10.05;;;23.40;44.40;;;;;;6147395;28;83288;-61
2024/03/06 08:49:12;;;;;;;17.67;10.95;;;23.40;44.50;;;;;;6145091;28;84020;-61
2024/03/06 08:52:13;;;;;;;13.88;9.27;;;23.50;44.50;;;;;;6138009;28;83489;-60
2024/03/06 08:55:13;;;;;;;15.75;9.30;;;23.50;44.50;;;;;;6148228;28;82990;-61
2024/03/06 08:58:14;;;;;;;15.55;9.68;;;23.50;44.90;;;;;;6148214;28;82719;-61
2024/03/06 09:01:14;;;;;;;14.18;9.35;;;23.60;44.60;;;;;;6148261;28;81062;-62
2024/03/06 09:04:16;;;;;;;18.42;9.40;;;23.60;44.70;;;;;;6151378;28;81750;-61
2024/03/06 09:07:16;;;;;;;15.50;9.85;;;23.60;44.50;;;;;;6150788;28;81212;-60
2024/03/06 09:10:18;;;;;;;15.95;9.95;;;23.70;44.50;;;;;;6154453;28;80358;-60
2024/03/06 09:13:19;;;;;;;18.02;9.80;;;23.70;44.70;;;;;;6154892;28;80687;-61
2024/03/06 09:16:19;;;;;;;12.32;8.65;;;23.60;44.80;;;;;;6156495;28;80626;-60
2024/03/06 09:19:20;;;;;;;17.10;9.23;;;23.70;45.00;;;;;;6156126;28;81390;-61
2024/03/06 09:22:21;;;;;;;16.17;9.68;;;23.70;45.00;;;;;;6153310;28;80958;-61
2024/03/06 09:25:21;;;;;;;14.75;9.02;;;23.70;44.70;;;;;;6156503;28;80615;-61
2024/03/06 09:28:22;;;;;;;14.70;8.75;;;23.70;44.50;;;;;;6141629;28;81380;-61
2024/03/06 09:31:23;;;;;;;14.02;9.30;;;23.70;44.40;;;;;;6153239;28;81168;-60
2024/03/06 09:34:23;;;;;;;13.48;9.05;;;23.70;44.30;;;;;;6146591;28;80731;-60
2024/03/06 09:37:24;;;;;;;11.93;8.48;;;23.80;44.10;;;;;;6133830;28;81562;-62
2024/03/06 09:40:24;;;;;;;14.80;9.45;;;23.80;44.30;;;;;;6148802;28;81471;-60
2024/03/06 09:43:25;;;;;;;12.00;8.25;;;23.80;44.20;;;;;;6150358;28;81741;-64
2024/03/06 09:46:26;;;;;;;11.43;7.97;;;23.80;44.40;;;;;;6151380;28;80294;-61
2024/03/06 09:49:27;;;;;;;12.10;9.00;;;23.80;44.30;;;;;;6142054;28;81785;-58
2024/03/06 09:52:27;;;;;;;10.15;7.75;;;23.90;44.50;;;;;;6141491;28;81755;-58
2024/03/06 09:55:28;;;;;;;10.02;7.40;;;24.00;44.70;;;;;;6149157;28;80628;-59
2024/03/06 09:58:28;;;;;;;10.15;7.43;;;24.00;44.40;;;;;;6147271;28;80765;-59
2024/03/06 10:01:29;;;;;;;10.77;8.02;;;24.00;44.30;;;;;;6147299;28;80529;-58
2024/03/06 10:04:29;;;;;;;11.63;7.65;;;24.00;44.40;;;;;;6148641;28;80558;-58
2024/03/06 10:07:30;;;;;;;12.75;7.30;;;24.00;44.30;;;;;;6140181;28;81885;-59
2024/03/06 10:10:30;;;;;;;18.40;8.43;;;24.00;44.20;;;;;;6148614;28;81663;-59
2024/03/06 10:13:31;;;;;;;18.33;7.68;;;24.00;44.10;;;;;;6143113;28;80507;-59
2024/03/06 10:16:32;;;;;;;11.48;7.00;;;24.00;44.20;;;;;;6133780;28;81108;-59
2024/03/06 10:19:34;;;;;;;17.23;7.78;;;24.00;44.10;;;;;;6140167;28;82672;-59
2024/03/06 10:22:34;;;;;;;13.10;7.80;;;24.00;44.10;;;;;;6138304;28;81930;-58
2024/03/06 10:25:34;;;;;;;13.45;7.28;;;24.00;44.00;;;;;;6142177;28;81539;-58
2024/03/06 10:28:36;;;;;;;12.40;6.97;;;24.00;44.10;;;;;;6141344;28;81856;-59
2024/03/06 10:31:36;;;;;;;9.02;6.95;;;24.00;44.10;;;;;;6145870;28;80151;-58
2024/03/06 10:34:37;;;;;;;10.85;6.75;;;24.00;44.10;;;;;;6146208;28;80571;-59
2024/03/06 10:37:38;;;;;;;11.38;7.20;;;24.10;44.10;;;;;;6148410;28;82435;-58
2024/03/06 10:40:39;;;;;;;13.85;6.82;;;24.10;44.30;;;;;;6151373;28;80663;-61
2024/03/06 10:43:40;;;;;;;13.73;6.60;;;24.10;44.30;;;;;;6146898;28;80495;-59
2024/03/06 10:46:40;;;;;;;11.68;7.15;;;24.10;44.30;;;;;;6151337;28;80613;-60
2024/03/06 10:49:42;;;;;;;9.55;6.72;;;24.10;44.30;;;;;;6141754;28;83068;-58
2024/03/06 10:52:43;;;;;;;9.23;6.50;;;24.10;44.40;;;;;;6130720;28;81970;-61
2024/03/06 10:55:46;;;;;;;8.75;6.35;;;24.10;44.50;;;;;;6150075;28;80521;-60
2024/03/06 10:58:47;;;;;;;9.88;6.32;;;24.10;44.50;;;;;;6146416;28;80624;-61
2024/03/06 11:01:47;;;;;;;8.90;6.53;;;24.10;44.50;;;;;;6145585;28;80436;-61
2024/03/06 11:04:48;;;;;;;11.82;6.90;;;24.10;44.60;;;;;;6151582;28;80589;-60
2024/03/06 11:07:48;;;;;;;8.55;6.25;;;24.10;44.50;;;;;;6139050;28;80929;-61
2024/03/06 11:10:49;;;;;;;9.70;6.22;;;24.10;44.40;;;;;;6152757;28;80566;-61
2024/03/06 11:13:49;;;;;;;11.43;6.78;;;24.00;44.40;;;;;;6141561;28;81044;-60
2024/03/06 11:16:50;;;;;;;8.65;5.88;;;24.10;44.40;;;;;;6135972;28;81278;-60
2024/03/06 11:19:50;;;;;;;12.02;6.72;;;24.00;44.40;;;;;;6151486;28;80480;-61
2024/03/06 11:22:51;;;;;;;11.13;6.55;;;24.00;44.50;;;;;;6144726;28;80830;-60
2024/03/06 11:25:54;;;;;;;9.18;6.57;;;24.00;44.60;;;;;;6127104;28;80232;-61
2024/03/06 11:28:56;;;;;;;10.35;6.75;;;24.00;44.50;;;;;;6142035;28;84958;-60
2024/03/06 11:31:57;;;;;;;8.65;6.60;;;24.00;44.40;;;;;;6149648;28;80346;-61
2024/03/06 11:34:57;;;;;;;12.73;6.72;;;24.00;44.40;;;;;;6148061;28;81832;-61
2024/03/06 11:37:58;;;;;;;9.10;6.30;;;24.00;44.50;;;;;;6147600;28;80303;-61
2024/03/06 11:40:58;;;;;;;7.97;6.18;;;24.00;44.30;;;;;;6142427;28;80573;-61
2024/03/06 11:43:59;;;;;;;8.60;6.20;;;24.00;44.20;;;;;;6140971;28;80556;-61
2024/03/06 11:47:03;;;;;;;13.07;7.43;;;24.00;44.30;;;;;;6150919;28;80449;-61
2024/03/06 11:50:03;;;;;;;8.32;5.95;;;24.00;44.50;;;;;;6149277;28;82024;-61
2024/03/06 11:53:05;;;;;;;11.77;7.05;;;23.90;44.10;;;;;;6151284;28;81045;-60
2024/03/06 11:56:07;;;;;;;13.50;6.40;;;23.90;44.40;;;;;;6142949;28;80865;-60
2024/03/06 11:59:09;;;;;;;12.82;7.00;;;23.90;44.60;;;;;;6136201;28;80319;-60
2024/03/06 12:02:10;;;;;;;11.98;6.95;;;23.90;45.20;;;;;;6137860;28;80819;-59
2024/03/06 12:05:11;;;;;;;12.77;6.95;;;23.90;45.90;;;;;;6147423;28;81757;-59
2024/03/06 12:08:11;;;;;;;14.55;6.43;;;23.90;46.00;;;;;;6148070;28;82230;-62
2024/03/06 12:11:12;;;;;;;11.00;7.00;;;23.90;45.90;;;;;;6148705;28;80905;-60
2024/03/06 12:14:12;;;;;;;12.50;6.45;;;23.90;46.00;;;;;;6141828;28;81056;-59
2024/03/06 12:17:14;;;;;;;9.80;6.00;;;23.90;46.00;;;;;;6137644;28;81047;-59
2024/03/06 12:20:17;;;;;;;8.90;6.20;;;23.90;45.80;;;;;;6150589;28;80585;-59
2024/03/06 12:23:18;;;;;;;11.13;6.55;;;23.90;45.60;;;;;;6147628;28;80962;-59
2024/03/06 12:26:18;;;;;;;8.90;5.90;;;23.90;45.60;;;;;;6148597;28;80695;-59
2024/03/06 12:29:19;;;;;;;13.77;6.75;;;23.90;45.50;;;;;;6151702;28;80472;-60
2024/03/06 12:32:20;;;;;;;11.43;7.05;;;23.80;45.60;;;;;;6149984;28;81022;-59
2024/03/06 12:35:20;;;;;;;8.98;6.25;;;23.80;46.90;;;;;;6146258;28;80785;-59
2024/03/06 12:38:21;;;;;;;8.95;6.15;;;23.80;46.10;;;;;;6145469;28;81950;-59
2024/03/06 12:41:22;;;;;;;8.00;5.75;;;23.80;46.20;;;;;;6150811;28;85257;-59
2024/03/06 12:44:22;;;;;;;8.30;6.10;;;23.80;46.10;;;;;;6152592;28;81454;-59
2024/03/06 12:47:23;;;;;;;11.25;6.53;;;23.90;46.10;;;;;;6152149;28;80870;-59
2024/03/06 12:50:23;;;;;;;8.35;6.78;;;23.90;46.20;;;;;;6150871;28;80586;-59
2024/03/06 12:53:24;;;;;;;11.60;6.63;;;23.90;46.20;;;;;;6161275;28;81184;-61
2024/03/06 12:56:25;;;;;;;12.65;7.45;;;23.90;46.40;;;;;;6152482;28;80671;-58
2024/03/06 12:59:25;;;;;;;10.52;6.55;;;23.90;46.30;;;;;;6146411;28;80878;-59
2024/03/06 13:02:26;;;;;;;8.98;6.55;;;23.90;46.50;;;;;;6152140;28;80906;-59
2024/03/06 13:05:26;;;;;;;10.77;7.07;;;23.90;46.40;;;;;;6143220;28;80522;-58
2024/03/06 13:08:27;;;;;;;11.38;6.70;;;23.90;46.40;;;;;;6149385;28;80799;-56
2024/03/06 13:11:27;;;;;;;15.65;7.05;;;23.90;46.10;;;;;;6149063;28;80254;-60
2024/03/06 13:14:28;;;;;;;12.45;7.15;;;23.90;46.00;;;;;;6150949;28;85315;-60
2024/03/06 13:17:29;;;;;;;14.45;7.03;;;23.80;46.00;;;;;;6145907;28;80597;-62
2024/03/06 13:20:30;;;;;;;14.75;7.50;;;23.80;46.40;;;;;;6145589;28;80909;-59
2024/03/06 13:23:31;;;;;;;11.80;6.95;;;23.80;46.20;;;;;;6145963;28;80777;-59
2024/03/06 13:26:31;;;;;;;12.88;7.38;;;23.80;46.00;;;;;;6146132;28;80768;-59
2024/03/06 13:29:32;;;;;;;10.57;7.60;;;23.80;45.80;;;;;;6144131;28;80789;-59
2024/03/06 13:32:33;;;;;;;13.57;7.05;;;23.80;45.50;;;;;;6139411;28;80811;-61
2024/03/06 13:35:33;;;;;;;10.32;7.78;;;23.80;45.70;;;;;;6141366;28;81513;-58
2024/03/06 13:38:34;;;;;;;11.73;7.50;;;23.80;46.00;;;;;;6144723;28;80695;-58
2024/03/06 13:41:34;;;;;;;11.52;7.03;;;23.80;45.60;;;;;;6152372;28;81147;-59
2024/03/06 13:44:35;;;;;;;11.68;6.78;;;23.70;46.00;;;;;;6154205;28;81018;-58
2024/03/06 13:47:35;;;;;;;12.25;7.30;;;23.70;46.00;;;;;;6153214;28;80295;-59
2024/03/06 13:50:36;;;;;;;14.57;7.28;;;23.70;46.00;;;;;;6153407;28;80534;-57
2024/03/06 13:53:36;;;;;;;12.05;7.47;;;23.70;46.10;;;;;;6148961;28;80810;-58
2024/03/06 13:56:37;;;;;;;11.75;7.40;;;23.80;46.30;;;;;;6145211;28;81035;-60
2024/03/06 13:59:38;;;;;;;12.25;7.22;;;23.70;46.80;;;;;;6144851;28;80387;-56
2024/03/06 14:02:39;;;;;;;15.43;7.10;;;23.70;46.20;;;;;;6151612;28;81637;-57
2024/03/06 14:05:40;;;;;;;12.82;6.82;;;23.80;46.30;;;;;;6150507;28;80621;-57
2024/03/06 14:08:43;;;;;;;15.10;6.60;;;23.80;46.40;;;;;;6147905;28;80423;-64
2024/03/06 14:11:44;;;;;;;9.77;7.25;;;23.80;46.50;;;;;;6146221;28;83643;-62
2024/03/06 14:14:45;;;;;;;10.40;6.80;;;23.70;46.40;;;;;;6146230;28;80704;-62
2024/03/06 14:17:45;;;;;;;13.70;6.68;;;23.70;46.30;;;;;;6148307;28;80596;-63
2024/03/06 14:20:46;;;;;;;18.13;7.07;;;23.80;46.10;;;;;;6144493;28;81205;-62
2024/03/06 14:23:46;;;;;;;9.63;6.22;;;23.70;46.10;;;;;;6147244;28;80415;-62
2024/03/06 14:26:48;;;;;;;10.40;7.15;;;23.70;46.80;;;;;;6162387;28;80555;-62
2024/03/06 14:29:49;;;;;;;10.02;7.25;;;23.70;46.20;;;;;;6138642;28;81894;-60
2024/03/06 14:32:50;;;;;;;11.02;7.03;;;23.70;46.20;;;;;;6134073;28;84129;-60
2024/03/06 14:35:50;;;;;;;10.70;6.72;;;23.70;46.50;;;;;;6128835;28;80422;-62
2024/03/06 14:38:52;;;;;;;12.23;8.20;;;23.70;46.50;;;;;;6151229;28;80374;-63
2024/03/06 14:41:52;;;;;;;11.50;6.93;;;23.60;46.40;;;;;;6141562;28;80839;-62
2024/03/06 14:44:53;;;;;;;10.93;6.63;;;23.70;46.30;;;;;;6133061;28;82693;-62
2024/03/06 14:47:54;;;;;;;11.23;7.22;;;23.70;46.30;;;;;;6126394;28;81668;-61
2024/03/06 14:50:55;;;;;;;9.85;7.28;;;23.70;46.20;;;;;;6136584;28;80255;-62
2024/03/06 14:53:55;;;;;;;10.63;7.57;;;23.70;46.60;;;;;;6125563;28;80462;-62
2024/03/06 14:56:56;;;;;;;9.00;6.82;;;23.70;46.60;;;;;;6146245;28;80923;-61
2024/03/06 14:59:57;;;;;;;10.82;6.93;;;23.70;46.40;;;;;;6142648;28;82016;-61
2024/03/06 15:02:58;;;;;;;13.60;7.35;;;23.70;46.50;;;;;;6134944;28;81038;-60
2024/03/06 15:05:58;;;;;;;13.18;6.88;;;23.70;46.40;;;;;;6143571;28;80818;-61
2024/03/06 15:08:59;;;;;;;11.35;6.63;;;23.70;46.50;;;;;;6149268;28;80909;-60
2024/03/06 15:12:00;;;;;;;19.60;7.43;;;23.70;46.40;;;;;;6152264;28;82632;-60
2024/03/06 15:15:02;;;;;;;11.35;7.85;;;23.60;46.80;;;;;;6146838;28;80561;-61
2024/03/06 15:18:03;;;;;;;25.55;7.82;;;23.70;46.60;;;;;;6144124;28;81155;-61
2024/03/06 15:21:03;;;;;;;11.52;7.03;;;23.70;46.90;;;;;;6141432;28;80769;-63
2024/03/06 15:24:04;;;;;;;10.07;7.18;;;23.60;47.10;;;;;;6148915;28;81503;-62
2024/03/06 15:27:04;;;;;;;14.95;7.53;;;23.70;46.70;;;;;;6137987;28;81641;-63